CMA CGM Aristote — MRPN4 — position and weather

sailwx.info

Track history (hours):
 
Tides and Currents Weather Stations Pressure Air Temp Water Temp Dewpoint Dewpoint Depression Visibility Wind Speed Wind Dir Waves Ship Positions

CMA CGM Aristote

Last reported at 2014-Dec-15 18:28 UTC. Time now 2014-Dec-20 12:19 UTC.
Position N 37°06' W 032°25'.

Length 170 m; draft 9.4 m.

Type: Ship (hazmat cat A). MMSI: 235054581.

Date/timePositionNaut miles runAvg speedWind from/ knotsBaromVisibWave heightAir tempDewpointWater temp
2014-Dec-15 18:28N 37°06' W 032°25'3719.0
2014-Dec-15 16:33N 37°27' W 031°47'2319.2
2014-Dec-15 15:20N 37°40' W 031°23'5419.3
2014-Dec-15 12:33N 38°12' W 030°28'1919.0
2014-Dec-15 11:33N 38°23' W 030°08'1919.1
2014-Dec-15 10:33N 38°34' W 029°48'1919.2
2014-Dec-15 09:34N 38°45' W 029°28'1919.2
2014-Dec-15 08:34N 38°57' W 029°09'1919.4
2014-Dec-15 07:34N 39°08' W 028°49'1919.4
2014-Dec-15 06:33N 39°19' W 028°28'1919.3
2014-Dec-15 05:34N 39°30' W 028°07'1919.2
2014-Dec-15 04:33N 39°41' W 027°47'1919.3
2014-Dec-15 03:33N 39°53' W 027°27'2019.1
2014-Dec-15 02:30N 40°05' W 027°05'2219.1
2014-Dec-15 01:20N 40°18' W 026°42'1619.6
2014-Dec-15 00:32N 40°26' W 026°25'  
2014-Dec-11 20:05N 49°59' W 003°06'5 8.4
2014-Dec-11 19:31N 50°00' W 002°59'96 8.6
2014-Dec-11 08:24N 49°40' W 000°33'910.1
2014-Dec-11 07:33N 49°37' W 000°20'1111.1
2014-Dec-11 06:33N 49°31' W 000°06'10 9.6
2014-Dec-11 05:34N 49°28' E 000°08'1 1.5
2014-Dec-11 04:33N 49°29' E 000°10'0 0.0
2014-Dec-11 03:33N 49°29' E 000°10'0 0.0
2014-Dec-11 02:33N 49°29' E 000°10'0 0.0
2014-Dec-11 01:33N 49°29' E 000°10'0 0.0
2014-Dec-11 00:33N 49°29' E 000°10'0 0.0
2014-Dec-10 23:27N 49°29' E 000°10'0 0.0
2014-Dec-10 22:33N 49°29' E 000°10'0 0.0
2014-Dec-10 21:33N 49°29' E 000°10'0 0.0
2014-Dec-10 20:30N 49°29' E 000°10'0 0.0
2014-Dec-10 19:33N 49°29' E 000°10'0 0.0
2014-Dec-10 18:33N 49°29' E 000°10'0 0.0
2014-Dec-10 17:33N 49°29' E 000°10'0 0.0
2014-Dec-10 16:30N 49°29' E 000°10'0 0.0
2014-Dec-10 15:33N 49°29' E 000°10'0 0.0
2014-Dec-10 14:33N 49°29' E 000°10'0 0.0
2014-Dec-10 13:33N 49°29' E 000°10'0 0.0
2014-Dec-10 12:33N 49°29' E 000°10'0 0.0
2014-Dec-10 11:33N 49°29' E 000°10'0 0.0
2014-Dec-10 10:33N 49°29' E 000°10'0 0.0
2014-Dec-10 09:33N 49°29' E 000°10'0 0.0
2014-Dec-10 08:33N 49°29' E 000°10'0 0.0
2014-Dec-10 07:33N 49°29' E 000°10'0 0.0
2014-Dec-10 06:30N 49°29' E 000°10'0 0.0
2014-Dec-10 05:33N 49°29' E 000°10'0 0.0
2014-Dec-10 04:30N 49°29' E 000°10'0 0.0
2014-Dec-10 03:33N 49°29' E 000°10'0 0.0
2014-Dec-10 02:33N 49°29' E 000°10'0 0.0
2014-Dec-10 01:32N 49°29' E 000°10'0 0.0
2014-Dec-10 00:32N 49°29' E 000°10'0 0.0
2014-Dec-09 23:32N 49°29' E 000°10'0 0.0
2014-Dec-09 22:32N 49°29' E 000°10'0 0.0
2014-Dec-09 21:32N 49°29' E 000°10'0 0.0
2014-Dec-09 20:32N 49°29' E 000°10'5 5.2
2014-Dec-09 19:33N 49°30' E 000°02'8 8.3
2014-Dec-09 18:33N 49°34' W 000°09'0 0.0
2014-Dec-09 17:30N 49°34' W 000°09'0 0.0
2014-Dec-09 16:30N 49°34' W 000°09'0 0.0
2014-Dec-09 15:33N 49°34' W 000°09'0 0.0
2014-Dec-09 14:33N 49°34' W 000°09'0 0.1
2014-Dec-09 13:30N 49°33' W 000°09'0 0.1
2014-Dec-09 12:33N 49°33' W 000°09'0 0.0
2014-Dec-09 11:30N 49°33' W 000°09'0 0.0
2014-Dec-09 10:33N 49°33' W 000°09'0 0.0
2014-Dec-09 09:33N 49°33' W 000°09'0 0.1
2014-Dec-09 08:30N 49°33' W 000°09'0 0.1
2014-Dec-09 07:30N 49°33' W 000°09'0 0.1
2014-Dec-09 06:30N 49°33' W 000°09'8 8.5
2014-Dec-09 05:33N 49°41' W 000°10'5611.2
2014-Dec-09 00:33N 50°33' E 000°24'1212.0
2014-Dec-08 23:33N 50°38' E 000°42'1212.4
2014-Dec-08 22:33N 50°46' E 000°56'1313.4
2014-Dec-08 21:33N 50°55' E 001°11'1615.9
2014-Dec-08 20:34N 51°06' E 001°31'1515.5
2014-Dec-08 19:33N 51°17' E 001°48'1413.9
2014-Dec-08 18:34N 51°28' E 002°01'1312.5
2014-Dec-08 17:33N 51°37' E 002°15'1412.5
2014-Dec-08 16:27N 51°48' E 002°29'4113.9
2014-Dec-08 13:32N 52°04' E 003°30'1515.4
2014-Dec-08 12:33N 52°02' E 003°54'1111.1
2014-Dec-08 11:33N 51°57' E 004°10'10 9.8
2014-Dec-08 10:33N 51°53' E 004°24'0 0.4
2014-Dec-08 09:32N 51°53' E 004°24'0 0.0
2014-Dec-08 08:32N 51°53' E 004°24'0 0.0
2014-Dec-08 07:33N 51°53' E 004°24'0 0.0
2014-Dec-08 06:32N 51°53' E 004°24'0 0.0
2014-Dec-08 05:32N 51°53' E 004°24'0 0.0
2014-Dec-08 04:32N 51°53' E 004°24'0 0.0
2014-Dec-08 03:32N 51°53' E 004°24'0 0.0
2014-Dec-08 02:32N 51°53' E 004°24'0 0.0
2014-Dec-08 01:32N 51°53' E 004°24'0 0.0
2014-Dec-08 00:32N 51°53' E 004°24'0 0.0
2014-Dec-07 23:32N 51°53' E 004°24'0 0.0
2014-Dec-07 22:32N 51°53' E 004°24'0 0.0
2014-Dec-07 21:33N 51°53' E 004°24'0 0.0
2014-Dec-07 20:33N 51°53' E 004°24'0 0.0
2014-Dec-07 19:32N 51°53' E 004°24'0 0.0
2014-Dec-07 18:32N 51°53' E 004°24'0 0.0
2014-Dec-07 17:33N 51°53' E 004°24'0 0.0
2014-Dec-07 16:32N 51°53' E 004°24'0 0.0
2014-Dec-07 15:32N 51°53' E 004°24'0 0.0
2014-Dec-07 14:33N 51°53' E 004°24'0 0.0
2014-Dec-07 13:33N 51°53' E 004°24'0 0.0
2014-Dec-07 12:33N 51°53' E 004°24'0 0.0
2014-Dec-07 11:33N 51°53' E 004°24'1 1.4
2014-Dec-07 10:33N 51°54' E 004°22'8 8.2
2014-Dec-07 09:34N 51°57' E 004°10'1110.6
2014-Dec-07 08:33N 51°60' E 003°53'1111.5
2014-Dec-07 07:33N 51°58' E 003°35'1614.9
2014-Dec-07 06:29N 51°52' E 003°11'1915.5
2014-Dec-07 05:15N 51°47' E 002°41'1313.5
2014-Dec-07 04:19N 51°49' E 002°21'1317.1
2014-Dec-07 03:34N 51°41' E 002°05'1716.9
2014-Dec-07 02:34N 51°31' E 001°42'1110.9
2014-Dec-07 01:34N 51°28' E 001°25'1515.4
2014-Dec-07 00:34N 51°29' E 001°01'1413.6
2014-Dec-06 23:33N 51°30' E 000°39'1110.8
2014-Dec-06 22:34N 51°27' E 000°23'2 1.7
2014-Dec-06 21:34N 51°28' E 000°20'0 0.0
2014-Dec-06 20:34N 51°28' E 000°20'0 0.0
2014-Dec-06 19:34N 51°28' E 000°20'0 0.0
2014-Dec-06 18:34N 51°28' E 000°20'0 0.0
2014-Dec-06 17:34N 51°28' E 000°20'0 0.0
2014-Dec-06 16:33N 51°28' E 000°20'0 0.0
2014-Dec-06 15:34N 51°28' E 000°20'0 0.0
2014-Dec-06 14:34N 51°28' E 000°20'0 0.0
2014-Dec-06 13:34N 51°28' E 000°20'0 0.0
2014-Dec-06 12:34N 51°28' E 000°20'0 0.0
2014-Dec-06 11:34N 51°28' E 000°20'0 0.0
2014-Dec-06 10:33N 51°28' E 000°20'0 0.0
2014-Dec-06 09:34N 51°28' E 000°20'0 0.0
2014-Dec-06 08:34N 51°28' E 000°20'0 0.0
2014-Dec-06 07:34N 51°28' E 000°20'0 0.0
2014-Dec-06 06:34N 51°28' E 000°20'0 0.0
2014-Dec-06 05:34N 51°28' E 000°20'0 0.0
2014-Dec-06 04:34N 51°28' E 000°20'0 0.0
2014-Dec-06 03:34N 51°28' E 000°20'0 0.0
2014-Dec-06 02:34N 51°28' E 000°20'3 2.6
2014-Dec-06 01:34N 51°27' E 000°24'10 9.9
2014-Dec-06 00:33N 51°30' E 000°39'1313.1
2014-Dec-05 23:33N 51°30' E 001°00'1313.0
2014-Dec-05 22:34N 51°29' E 001°21'8 7.7
2014-Dec-05 21:33N 51°24' E 001°31'1312.9
2014-Dec-05 20:34N 51°12' E 001°37'1313.1
2014-Dec-05 19:33N 50°60' E 001°31'1616.0
2014-Dec-05 18:32N 50°44' E 001°23'  
Track history (hours):
 
Tides and Currents Weather Stations Pressure Air Temp Water Temp Dewpoint Dewpoint Depression Visibility Wind Speed Wind Dir Waves Ship Positions

CMA CGM Aristote

Last reported at 2014-Dec-15 18:28 UTC. Time now 2014-Dec-20 12:19 UTC.
Position N 37°06' W 032°25'.

Length 170 m; draft 9.4 m.

Type: Ship (hazmat cat A). MMSI: 235054581.

Date/timePositionNaut miles runAvg speedWind from/ knotsBaromVisibWave heightAir tempDewpointWater temp
2014-Dec-15 18:28N 37°06' W 032°25'3719.0
2014-Dec-15 16:33N 37°27' W 031°47'2319.2
2014-Dec-15 15:20N 37°40' W 031°23'5419.3
2014-Dec-15 12:33N 38°12' W 030°28'1919.0
2014-Dec-15 11:33N 38°23' W 030°08'1919.1
2014-Dec-15 10:33N 38°34' W 029°48'1919.2
2014-Dec-15 09:34N 38°45' W 029°28'1919.2
2014-Dec-15 08:34N 38°57' W 029°09'1919.4
2014-Dec-15 07:34N 39°08' W 028°49'1919.4
2014-Dec-15 06:33N 39°19' W 028°28'1919.3
2014-Dec-15 05:34N 39°30' W 028°07'1919.2
2014-Dec-15 04:33N 39°41' W 027°47'1919.3
2014-Dec-15 03:33N 39°53' W 027°27'2019.1
2014-Dec-15 02:30N 40°05' W 027°05'2219.1
2014-Dec-15 01:20N 40°18' W 026°42'1619.6
2014-Dec-15 00:32N 40°26' W 026°25'  
2014-Dec-11 20:05N 49°59' W 003°06'5 8.4
2014-Dec-11 19:31N 50°00' W 002°59'96 8.6
2014-Dec-11 08:24N 49°40' W 000°33'910.1
2014-Dec-11 07:33N 49°37' W 000°20'1111.1
2014-Dec-11 06:33N 49°31' W 000°06'10 9.6
2014-Dec-11 05:34N 49°28' E 000°08'1 1.5
2014-Dec-11 04:33N 49°29' E 000°10'0 0.0
2014-Dec-11 03:33N 49°29' E 000°10'0 0.0
2014-Dec-11 02:33N 49°29' E 000°10'0 0.0
2014-Dec-11 01:33N 49°29' E 000°10'0 0.0
2014-Dec-11 00:33N 49°29' E 000°10'0 0.0
2014-Dec-10 23:27N 49°29' E 000°10'0 0.0
2014-Dec-10 22:33N 49°29' E 000°10'0 0.0
2014-Dec-10 21:33N 49°29' E 000°10'0 0.0
2014-Dec-10 20:30N 49°29' E 000°10'0 0.0
2014-Dec-10 19:33N 49°29' E 000°10'0 0.0
2014-Dec-10 18:33N 49°29' E 000°10'0 0.0
2014-Dec-10 17:33N 49°29' E 000°10'0 0.0
2014-Dec-10 16:30N 49°29' E 000°10'0 0.0
2014-Dec-10 15:33N 49°29' E 000°10'0 0.0
2014-Dec-10 14:33N 49°29' E 000°10'0 0.0
2014-Dec-10 13:33N 49°29' E 000°10'0 0.0
2014-Dec-10 12:33N 49°29' E 000°10'0 0.0
2014-Dec-10 11:33N 49°29' E 000°10'0 0.0
2014-Dec-10 10:33N 49°29' E 000°10'0 0.0
2014-Dec-10 09:33N 49°29' E 000°10'0 0.0
2014-Dec-10 08:33N 49°29' E 000°10'0 0.0
2014-Dec-10 07:33N 49°29' E 000°10'0 0.0
2014-Dec-10 06:30N 49°29' E 000°10'0 0.0
2014-Dec-10 05:33N 49°29' E 000°10'0 0.0
2014-Dec-10 04:30N 49°29' E 000°10'0 0.0
2014-Dec-10 03:33N 49°29' E 000°10'0 0.0
2014-Dec-10 02:33N 49°29' E 000°10'0 0.0
2014-Dec-10 01:32N 49°29' E 000°10'0 0.0
2014-Dec-10 00:32N 49°29' E 000°10'0 0.0
2014-Dec-09 23:32N 49°29' E 000°10'0 0.0
2014-Dec-09 22:32N 49°29' E 000°10'0 0.0
2014-Dec-09 21:32N 49°29' E 000°10'0 0.0
2014-Dec-09 20:32N 49°29' E 000°10'5 5.2
2014-Dec-09 19:33N 49°30' E 000°02'8 8.3
2014-Dec-09 18:33N 49°34' W 000°09'0 0.0
2014-Dec-09 17:30N 49°34' W 000°09'0 0.0
2014-Dec-09 16:30N 49°34' W 000°09'0 0.0
2014-Dec-09 15:33N 49°34' W 000°09'0 0.0
2014-Dec-09 14:33N 49°34' W 000°09'0 0.1
2014-Dec-09 13:30N 49°33' W 000°09'0 0.1
2014-Dec-09 12:33N 49°33' W 000°09'0 0.0
2014-Dec-09 11:30N 49°33' W 000°09'0 0.0
2014-Dec-09 10:33N 49°33' W 000°09'0 0.0
2014-Dec-09 09:33N 49°33' W 000°09'0 0.1
2014-Dec-09 08:30N 49°33' W 000°09'0 0.1
2014-Dec-09 07:30N 49°33' W 000°09'0 0.1
2014-Dec-09 06:30N 49°33' W 000°09'8 8.5
2014-Dec-09 05:33N 49°41' W 000°10'5611.2
2014-Dec-09 00:33N 50°33' E 000°24'1212.0
2014-Dec-08 23:33N 50°38' E 000°42'1212.4
2014-Dec-08 22:33N 50°46' E 000°56'1313.4
2014-Dec-08 21:33N 50°55' E 001°11'1615.9
2014-Dec-08 20:34N 51°06' E 001°31'1515.5
2014-Dec-08 19:33N 51°17' E 001°48'1413.9
2014-Dec-08 18:34N 51°28' E 002°01'1312.5
2014-Dec-08 17:33N 51°37' E 002°15'1412.5
2014-Dec-08 16:27N 51°48' E 002°29'4113.9
2014-Dec-08 13:32N 52°04' E 003°30'1515.4
2014-Dec-08 12:33N 52°02' E 003°54'1111.1
2014-Dec-08 11:33N 51°57' E 004°10'10 9.8
2014-Dec-08 10:33N 51°53' E 004°24'0 0.4
2014-Dec-08 09:32N 51°53' E 004°24'0 0.0
2014-Dec-08 08:32N 51°53' E 004°24'0 0.0
2014-Dec-08 07:33N 51°53' E 004°24'0 0.0
2014-Dec-08 06:32N 51°53' E 004°24'0 0.0
2014-Dec-08 05:32N 51°53' E 004°24'0 0.0
2014-Dec-08 04:32N 51°53' E 004°24'0 0.0
2014-Dec-08 03:32N 51°53' E 004°24'0 0.0
2014-Dec-08 02:32N 51°53' E 004°24'0 0.0
2014-Dec-08 01:32N 51°53' E 004°24'0 0.0
2014-Dec-08 00:32N 51°53' E 004°24'0 0.0
2014-Dec-07 23:32N 51°53' E 004°24'0 0.0
2014-Dec-07 22:32N 51°53' E 004°24'0 0.0
2014-Dec-07 21:33N 51°53' E 004°24'0 0.0
2014-Dec-07 20:33N 51°53' E 004°24'0 0.0
2014-Dec-07 19:32N 51°53' E 004°24'0 0.0
2014-Dec-07 18:32N 51°53' E 004°24'0 0.0
2014-Dec-07 17:33N 51°53' E 004°24'0 0.0
2014-Dec-07 16:32N 51°53' E 004°24'0 0.0
2014-Dec-07 15:32N 51°53' E 004°24'0 0.0
2014-Dec-07 14:33N 51°53' E 004°24'0 0.0
2014-Dec-07 13:33N 51°53' E 004°24'0 0.0
2014-Dec-07 12:33N 51°53' E 004°24'0 0.0
2014-Dec-07 11:33N 51°53' E 004°24'1 1.4
2014-Dec-07 10:33N 51°54' E 004°22'8 8.2
2014-Dec-07 09:34N 51°57' E 004°10'1110.6
2014-Dec-07 08:33N 51°60' E 003°53'1111.5
2014-Dec-07 07:33N 51°58' E 003°35'1614.9
2014-Dec-07 06:29N 51°52' E 003°11'1915.5
2014-Dec-07 05:15N 51°47' E 002°41'1313.5
2014-Dec-07 04:19N 51°49' E 002°21'1317.1
2014-Dec-07 03:34N 51°41' E 002°05'1716.9
2014-Dec-07 02:34N 51°31' E 001°42'1110.9
2014-Dec-07 01:34N 51°28' E 001°25'1515.4
2014-Dec-07 00:34N 51°29' E 001°01'1413.6
2014-Dec-06 23:33N 51°30' E 000°39'1110.8
2014-Dec-06 22:34N 51°27' E 000°23'2 1.7
2014-Dec-06 21:34N 51°28' E 000°20'0 0.0
2014-Dec-06 20:34N 51°28' E 000°20'0 0.0
2014-Dec-06 19:34N 51°28' E 000°20'0 0.0
2014-Dec-06 18:34N 51°28' E 000°20'0 0.0
2014-Dec-06 17:34N 51°28' E 000°20'0 0.0
2014-Dec-06 16:33N 51°28' E 000°20'0 0.0
2014-Dec-06 15:34N 51°28' E 000°20'0 0.0
2014-Dec-06 14:34N 51°28' E 000°20'0 0.0
2014-Dec-06 13:34N 51°28' E 000°20'0 0.0
2014-Dec-06 12:34N 51°28' E 000°20'0 0.0
2014-Dec-06 11:34N 51°28' E 000°20'0 0.0
2014-Dec-06 10:33N 51°28' E 000°20'0 0.0
2014-Dec-06 09:34N 51°28' E 000°20'0 0.0
2014-Dec-06 08:34N 51°28' E 000°20'0 0.0
2014-Dec-06 07:34N 51°28' E 000°20'0 0.0
2014-Dec-06 06:34N 51°28' E 000°20'0 0.0
2014-Dec-06 05:34N 51°28' E 000°20'0 0.0
2014-Dec-06 04:34N 51°28' E 000°20'0 0.0
2014-Dec-06 03:34N 51°28' E 000°20'0 0.0
2014-Dec-06 02:34N 51°28' E 000°20'3 2.6
2014-Dec-06 01:34N 51°27' E 000°24'10 9.9
2014-Dec-06 00:33N 51°30' E 000°39'1313.1
2014-Dec-05 23:33N 51°30' E 001°00'1313.0
2014-Dec-05 22:34N 51°29' E 001°21'8 7.7
2014-Dec-05 21:33N 51°24' E 001°31'1312.9
2014-Dec-05 20:34N 51°12' E 001°37'1313.1
2014-Dec-05 19:33N 50°60' E 001°31'1616.0
2014-Dec-05 18:32N 50°44' E 001°23'  

Dump ship's entire track history